createdAt,value
2022-08-29T00:01:21.450Z,19.60
2022-08-29T00:05:32.826Z,19.49
2022-08-29T00:09:34.951Z,19.62
2022-08-29T00:13:37.249Z,19.67
2022-08-29T00:17:39.340Z,19.45
2022-08-29T00:21:41.665Z,19.28
2022-08-29T00:25:45.886Z,19.10
2022-08-29T00:29:48.365Z,19.16
2022-08-29T00:33:51.687Z,19.30
2022-08-29T00:37:55.098Z,19.14
2022-08-29T00:41:57.344Z,19.26
2022-08-29T00:46:23.871Z,19.14
2022-08-29T00:50:31.971Z,19.07
2022-08-29T00:54:35.271Z,19.00
2022-08-29T00:58:46.881Z,19.04
2022-08-29T01:02:49.212Z,19.16
2022-08-29T01:06:51.668Z,19.24
2022-08-29T01:11:13.648Z,19.30
2022-08-29T01:15:15.999Z,19.32
2022-08-29T01:19:31.817Z,19.25
2022-08-29T01:24:06.499Z,19.29
2022-08-29T01:28:18.925Z,19.27
2022-08-29T01:32:23.774Z,19.17
2022-08-29T01:36:52.007Z,19.30
2022-08-29T01:40:59.036Z,19.35
2022-08-29T01:45:02.877Z,19.72
2022-08-29T01:49:07.948Z,19.86
2022-08-29T01:53:10.277Z,19.84
2022-08-29T01:57:14.631Z,19.94
2022-08-29T02:01:25.408Z,20.17
2022-08-29T02:05:30.223Z,19.84
2022-08-29T02:09:32.922Z,19.64
2022-08-29T02:13:46.596Z,19.83
2022-08-29T02:17:48.884Z,19.40
2022-08-29T02:21:51.434Z,19.16
2022-08-29T02:25:53.743Z,19.40
2022-08-29T02:29:55.856Z,19.39
2022-08-29T02:33:58.332Z,19.35
2022-08-29T02:38:02.498Z,19.52
2022-08-29T02:42:05.387Z,19.49
2022-08-29T02:46:08.203Z,19.61
2022-08-29T02:50:12.092Z,19.67
2022-08-29T02:54:14.106Z,19.77
2022-08-29T02:58:16.640Z,19.71
2022-08-29T03:02:19.089Z,19.44
2022-08-29T03:06:22.605Z,19.63
2022-08-29T03:10:25.748Z,19.86
2022-08-29T03:14:28.091Z,19.99
2022-08-29T03:18:30.746Z,20.02
2022-08-29T03:22:34.871Z,20.04
2022-08-29T03:26:37.295Z,19.91
2022-08-29T03:30:40.239Z,19.87
2022-08-29T03:34:42.298Z,19.82
2022-08-29T03:38:46.868Z,19.94
2022-08-29T03:42:48.978Z,19.92
2022-08-29T03:46:51.511Z,19.97
2022-08-29T03:50:56.464Z,20.05
2022-08-29T03:54:59.136Z,19.99
2022-08-29T03:59:02.100Z,20.10
2022-08-29T04:03:04.523Z,20.18
2022-08-29T04:07:07.058Z,20.23
2022-08-29T04:11:14.737Z,20.33
2022-08-29T04:15:17.500Z,20.33
2022-08-29T04:19:21.297Z,20.22
2022-08-29T04:23:23.425Z,20.41
2022-08-29T04:27:25.725Z,20.43
2022-08-29T04:31:27.979Z,20.31
2022-08-29T04:35:30.345Z,20.33
2022-08-29T04:39:32.345Z,20.35
2022-08-29T04:43:34.713Z,20.47
2022-08-29T04:47:38.710Z,20.50
2022-08-29T04:51:41.054Z,20.65
2022-08-29T04:55:43.093Z,20.78
2022-08-29T04:59:47.657Z,20.70
2022-08-29T05:03:55.996Z,20.76
2022-08-29T05:07:58.342Z,20.63
2022-08-29T05:12:00.515Z,20.68
2022-08-29T05:16:11.291Z,20.67
2022-08-29T05:20:13.683Z,20.65
2022-08-29T05:24:15.990Z,20.58
2022-08-29T05:28:18.035Z,20.61
2022-08-29T05:32:21.701Z,20.66
2022-08-29T05:36:23.892Z,20.68
2022-08-29T05:40:26.762Z,20.45
2022-08-29T05:44:34.311Z,20.15
2022-08-29T05:48:41.990Z,20.34
2022-08-29T05:52:44.715Z,20.38
2022-08-29T05:56:47.964Z,20.25
2022-08-29T06:00:50.102Z,20.00
2022-08-29T06:04:52.942Z,20.12
2022-08-29T06:08:56.215Z,20.12
2022-08-29T06:12:58.622Z,20.22
2022-08-29T06:17:01.567Z,20.14
2022-08-29T06:21:07.385Z,20.19
2022-08-29T06:25:35.283Z,20.15
2022-08-29T06:29:32.574Z,20.19
2022-08-29T06:33:44.012Z,20.27
2022-08-29T06:37:46.233Z,20.63
2022-08-29T06:41:48.275Z,20.68
2022-08-29T06:45:50.586Z,20.73
2022-08-29T06:49:52.812Z,20.60
2022-08-29T06:53:55.078Z,20.60
2022-08-29T06:57:57.202Z,20.69
2022-08-29T07:01:59.461Z,20.79
2022-08-29T07:06:02.032Z,20.65
2022-08-29T07:10:04.695Z,20.45
2022-08-29T07:14:06.998Z,20.42
2022-08-29T07:18:09.270Z,20.45
2022-08-29T07:22:11.289Z,20.54
2022-08-29T07:26:16.976Z,20.51
2022-08-29T07:30:21.097Z,20.66
2022-08-29T07:34:23.544Z,20.61
2022-08-29T07:38:26.107Z,20.53
2022-08-29T07:42:28.527Z,20.63
2022-08-29T07:46:31.633Z,20.77
2022-08-29T07:50:34.191Z,20.89
2022-08-29T07:54:36.447Z,20.91
2022-08-29T07:58:39.286Z,20.84
2022-08-29T08:02:41.530Z,20.67
2022-08-29T08:06:44.725Z,20.73
2022-08-29T08:10:51.834Z,20.63
2022-08-29T08:14:54.552Z,20.51
2022-08-29T08:18:57.216Z,20.85
2022-08-29T08:22:59.854Z,20.67
2022-08-29T08:27:02.384Z,20.65
2022-08-29T08:31:07.350Z,20.86
2022-08-29T08:35:10.505Z,21.05
2022-08-29T08:39:14.771Z,21.26
2022-08-29T08:43:26.783Z,20.93
2022-08-29T08:47:53.556Z,21.07
2022-08-29T08:52:02.324Z,21.28
2022-08-29T08:56:13.857Z,21.12
2022-08-29T09:00:16.091Z,21.06
2022-08-29T09:04:42.574Z,21.26
2022-08-29T09:09:14.366Z,21.22
2022-08-29T09:13:40.270Z,21.45
2022-08-29T09:17:57.915Z,21.32
2022-08-29T09:22:10.287Z,21.29
2022-08-29T09:26:15.904Z,21.05
2022-08-29T09:30:24.756Z,21.27
2022-08-29T09:35:04.299Z,21.37
2022-08-29T09:39:28.594Z,21.62
2022-08-29T09:43:50.180Z,21.56
2022-08-29T09:48:17.602Z,21.50
2022-08-29T09:52:25.131Z,21.47
2022-08-29T09:56:28.370Z,21.65
2022-08-29T10:00:39.640Z,21.74
2022-08-29T10:04:44.143Z,21.79
2022-08-29T10:09:06.012Z,21.86
2022-08-29T10:13:15.532Z,22.34
2022-08-29T10:17:43.626Z,22.51
2022-08-29T10:22:00.055Z,22.17
2022-08-29T10:26:10.168Z,22.09
2022-08-29T10:30:22.707Z,21.90
2022-08-29T10:34:31.905Z,22.06
2022-08-29T10:38:34.190Z,22.66
2022-08-29T10:42:41.124Z,22.55
2022-08-29T10:46:54.132Z,22.26
2022-08-29T10:51:21.027Z,22.61
2022-08-29T10:55:49.635Z,22.93
2022-08-29T11:00:06.115Z,22.85
2022-08-29T11:04:19.835Z,22.48
2022-08-29T11:08:35.798Z,22.55
2022-08-29T11:12:58.540Z,22.33
2022-08-29T11:17:03.131Z,22.82
2022-08-29T11:21:32.433Z,22.51
2022-08-29T11:25:36.551Z,22.27
2022-08-29T11:29:52.838Z,22.53
2022-08-29T11:34:21.295Z,23.13
2022-08-29T11:38:42.761Z,23.60
2022-08-29T11:42:52.068Z,23.67
2022-08-29T11:46:57.053Z,23.92
2022-08-29T11:51:00.820Z,24.42
2022-08-29T11:55:24.025Z,23.90
2022-08-29T11:59:56.947Z,23.77
2022-08-29T12:04:00.358Z,23.99
2022-08-29T12:08:33.589Z,24.03
2022-08-29T12:12:42.375Z,24.34
2022-08-29T12:16:50.675Z,24.32
2022-08-29T12:20:57.008Z,24.34
2022-08-29T12:25:05.397Z,24.17
2022-08-29T12:29:16.800Z,24.18
2022-08-29T12:33:40.192Z,24.30
2022-08-29T12:37:43.126Z,24.67
2022-08-29T12:41:50.339Z,24.65
2022-08-29T12:45:54.271Z,23.65
2022-08-29T12:50:01.196Z,23.33
2022-08-29T12:54:04.751Z,23.93
2022-08-29T12:58:08.054Z,24.08
2022-08-29T13:02:24.388Z,24.14
2022-08-29T13:06:27.401Z,23.77
2022-08-29T13:10:30.567Z,23.58
2022-08-29T13:14:35.295Z,23.38
2022-08-29T13:18:53.907Z,23.96
2022-08-29T13:23:18.066Z,24.44
2022-08-29T13:27:21.869Z,24.68
2022-08-29T13:31:29.748Z,24.73
2022-08-29T13:35:33.983Z,24.21
2022-08-29T13:39:41.560Z,24.66
2022-08-29T13:43:48.916Z,24.57
2022-08-29T13:48:12.559Z,24.98
2022-08-29T13:52:17.716Z,24.87
2022-08-29T13:56:31.421Z,25.00
2022-08-29T14:00:34.989Z,25.21
2022-08-29T14:04:39.843Z,24.58
2022-08-29T14:08:45.344Z,24.57
2022-08-29T14:12:47.710Z,24.10
2022-08-29T14:16:53.730Z,24.34
2022-08-29T14:20:56.108Z,24.35
2022-08-29T14:24:58.365Z,24.59
2022-08-29T14:29:03.271Z,24.43
2022-08-29T14:33:05.953Z,24.36
2022-08-29T14:37:12.600Z,24.35
2022-08-29T14:41:15.267Z,24.19
2022-08-29T14:45:17.451Z,24.46
2022-08-29T14:49:20.034Z,24.51
2022-08-29T14:53:22.649Z,24.55
2022-08-29T14:57:25.578Z,24.54
2022-08-29T15:01:28.363Z,24.16
2022-08-29T15:05:32.161Z,24.13
2022-08-29T15:09:34.365Z,24.10
2022-08-29T15:13:36.684Z,23.64
2022-08-29T15:17:39.011Z,23.77
2022-08-29T15:21:41.203Z,24.90
2022-08-29T15:25:43.804Z,25.01
2022-08-29T15:29:54.265Z,26.84
2022-08-29T15:33:57.885Z,28.20
2022-08-29T15:38:00.408Z,27.72
2022-08-29T15:42:08.562Z,29.16
2022-08-29T15:46:11.046Z,29.02
2022-08-29T15:50:13.530Z,27.26
2022-08-29T15:54:16.385Z,27.10
2022-08-29T15:58:18.434Z,26.68
2022-08-29T16:02:20.739Z,25.85
2022-08-29T16:06:22.845Z,26.21
2022-08-29T16:10:25.432Z,25.22
2022-08-29T16:14:58.041Z,24.12
2022-08-29T16:18:50.525Z,23.09
2022-08-29T16:22:53.372Z,22.77
2022-08-29T16:26:55.670Z,22.58
2022-08-29T16:30:58.995Z,22.45
2022-08-29T16:35:01.616Z,22.27
2022-08-29T16:39:05.932Z,22.17
2022-08-29T16:43:08.409Z,22.09
2022-08-29T16:47:11.298Z,21.88
2022-08-29T16:51:14.037Z,21.64
2022-08-29T16:55:21.482Z,21.47
2022-08-29T16:59:23.817Z,21.41
2022-08-29T17:03:26.007Z,21.28
2022-08-29T17:07:33.945Z,21.13
2022-08-29T17:11:39.845Z,21.10
2022-08-29T17:15:42.078Z,21.01
2022-08-29T17:19:44.735Z,20.85
2022-08-29T17:23:47.723Z,20.80
2022-08-29T17:28:14.339Z,20.84
2022-08-29T17:32:13.718Z,20.69
2022-08-29T17:36:17.193Z,20.54
2022-08-29T17:40:20.467Z,20.41
2022-08-29T17:44:25.488Z,20.21
2022-08-29T17:48:27.838Z,20.12
2022-08-29T17:52:30.108Z,20.02
2022-08-29T17:56:45.886Z,19.86
2022-08-29T18:00:49.001Z,19.69
2022-08-29T18:04:51.758Z,19.41
2022-08-29T18:08:53.932Z,19.32
2022-08-29T18:12:56.327Z,18.89
2022-08-29T18:16:58.472Z,18.78
2022-08-29T18:21:04.574Z,18.59
2022-08-29T18:25:07.905Z,18.49
2022-08-29T18:29:10.659Z,18.27
2022-08-29T18:33:13.175Z,18.45
2022-08-29T18:37:16.076Z,18.67
2022-08-29T18:41:18.354Z,18.81
2022-08-29T18:45:20.782Z,18.52
2022-08-29T18:49:42.975Z,18.35
2022-08-29T18:53:46.110Z,18.41
2022-08-29T18:57:48.410Z,18.39
2022-08-29T19:01:50.872Z,18.19
2022-08-29T19:05:54.147Z,18.08
2022-08-29T19:09:56.616Z,17.91
2022-08-29T19:13:59.237Z,17.84
2022-08-29T19:18:01.545Z,17.92
2022-08-29T19:22:03.708Z,18.04
2022-08-29T19:26:10.153Z,18.06
2022-08-29T19:30:14.500Z,18.03
2022-08-29T19:34:17.071Z,18.07
2022-08-29T19:38:21.388Z,18.33
2022-08-29T19:42:24.031Z,18.43
2022-08-29T19:46:26.575Z,18.46
2022-08-29T19:50:30.026Z,18.57
2022-08-29T19:54:32.504Z,18.72
2022-08-29T19:58:35.357Z,18.84
2022-08-29T20:02:37.509Z,18.94
2022-08-29T20:06:39.876Z,18.80
2022-08-29T20:10:44.817Z,18.75
2022-08-29T20:14:52.781Z,18.73
2022-08-29T20:18:55.500Z,18.64
2022-08-29T20:22:59.737Z,18.56
2022-08-29T20:27:02.682Z,18.48
2022-08-29T20:31:07.502Z,18.41
2022-08-29T20:35:09.677Z,18.37
2022-08-29T20:39:15.436Z,18.28
2022-08-29T20:43:18.783Z,18.18
2022-08-29T20:47:22.375Z,17.98
2022-08-29T20:51:24.486Z,17.80
2022-08-29T20:55:26.843Z,17.75
2022-08-29T20:59:32.647Z,17.72
2022-08-29T21:03:55.035Z,17.67
2022-08-29T21:07:57.153Z,17.69
2022-08-29T21:11:59.927Z,17.68
2022-08-29T21:16:04.656Z,17.80
2022-08-29T21:20:07.616Z,17.84
2022-08-29T21:24:12.479Z,17.83
2022-08-29T21:28:14.705Z,17.75
2022-08-29T21:32:17.200Z,17.69
2022-08-29T21:36:32.263Z,17.69
2022-08-29T21:40:34.841Z,17.67
2022-08-29T21:44:37.142Z,17.82
2022-08-29T21:48:39.196Z,17.74
2022-08-29T21:52:41.478Z,17.82
2022-08-29T21:56:44.283Z,17.80
2022-08-29T22:00:47.208Z,17.63
2022-08-29T22:04:49.337Z,17.60
2022-08-29T22:08:51.931Z,17.53
2022-08-29T22:12:57.844Z,17.39
2022-08-29T22:17:00.098Z,17.36
2022-08-29T22:21:04.591Z,17.50
2022-08-29T22:25:07.296Z,17.23
2022-08-29T22:29:11.748Z,17.17
2022-08-29T22:33:16.375Z,17.09
2022-08-29T22:37:19.934Z,17.11
2022-08-29T22:41:23.922Z,17.35
2022-08-29T22:45:26.101Z,17.31
2022-08-29T22:49:33.041Z,17.36
2022-08-29T22:53:35.594Z,17.19
2022-08-29T22:57:37.890Z,17.06
2022-08-29T23:01:43.498Z,17.16
2022-08-29T23:05:45.916Z,17.12
2022-08-29T23:09:48.365Z,17.12
2022-08-29T23:13:51.033Z,17.10
2022-08-29T23:17:53.179Z,16.99
2022-08-29T23:21:55.652Z,16.98
2022-08-29T23:25:59.231Z,16.80
2022-08-29T23:30:01.980Z,16.80
2022-08-29T23:34:04.333Z,16.73
2022-08-29T23:38:07.755Z,16.82
2022-08-29T23:42:10.495Z,16.91
2022-08-29T23:46:13.790Z,16.94
2022-08-29T23:50:16.434Z,16.82
2022-08-29T23:54:19.530Z,16.77
2022-08-29T23:58:21.870Z,16.78
